sensor_id;sensor_type;location;lat;lon;timestamp;P1;durP1;ratioP1;P2;durP2;ratioP2
79047;SDS011;68680;50.764;6.120;2023-08-17T00:02:03;27.67;;;16.67;;
79047;SDS011;68680;50.764;6.120;2023-08-17T00:04:29;25.52;;;15.40;;
79047;SDS011;68680;50.764;6.120;2023-08-17T00:06:56;28.55;;;16.67;;
79047;SDS011;68680;50.764;6.120;2023-08-17T00:09:21;27.30;;;17.08;;
79047;SDS011;68680;50.764;6.120;2023-08-17T00:11:47;28.33;;;17.67;;
79047;SDS011;68680;50.764;6.120;2023-08-17T00:14:12;35.97;;;19.30;;
79047;SDS011;68680;50.764;6.120;2023-08-17T00:16:38;36.78;;;19.67;;
79047;SDS011;68680;50.764;6.120;2023-08-17T00:19:04;42.47;;;23.63;;
79047;SDS011;68680;50.764;6.120;2023-08-17T00:21:29;41.58;;;23.55;;
79047;SDS011;68680;50.764;6.120;2023-08-17T00:23:56;40.17;;;21.67;;
79047;SDS011;68680;50.764;6.120;2023-08-17T00:26:22;37.92;;;20.45;;
79047;SDS011;68680;50.764;6.120;2023-08-17T00:28:47;41.47;;;22.83;;
79047;SDS011;68680;50.764;6.120;2023-08-17T00:31:13;37.35;;;22.65;;
79047;SDS011;68680;50.764;6.120;2023-08-17T00:33:38;42.25;;;24.15;;
79047;SDS011;68680;50.764;6.120;2023-08-17T00:36:04;46.72;;;25.40;;
79047;SDS011;68680;50.764;6.120;2023-08-17T00:38:30;43.42;;;23.30;;
79047;SDS011;68680;50.764;6.120;2023-08-17T00:40:57;44.60;;;24.48;;
79047;SDS011;68680;50.764;6.120;2023-08-17T00:43:22;44.55;;;25.10;;
79047;SDS011;68680;50.764;6.120;2023-08-17T00:45:48;47.17;;;25.13;;
79047;SDS011;68680;50.764;6.120;2023-08-17T00:48:14;36.97;;;22.70;;
79047;SDS011;68680;50.764;6.120;2023-08-17T00:50:39;41.53;;;23.08;;
79047;SDS011;68680;50.764;6.120;2023-08-17T00:53:06;39.92;;;22.75;;
79047;SDS011;68680;50.764;6.120;2023-08-17T00:55:33;37.03;;;22.10;;
79047;SDS011;68680;50.764;6.120;2023-08-17T00:58:00;44.90;;;23.15;;
79047;SDS011;68680;50.764;6.120;2023-08-17T01:00:25;35.67;;;21.55;;
79047;SDS011;68680;50.764;6.120;2023-08-17T01:02:51;35.92;;;20.95;;
79047;SDS011;68680;50.764;6.120;2023-08-17T01:05:18;36.80;;;22.02;;
79047;SDS011;68680;50.764;6.120;2023-08-17T01:07:44;37.05;;;22.77;;
79047;SDS011;68680;50.764;6.120;2023-08-17T01:10:10;37.90;;;22.35;;
79047;SDS011;68680;50.764;6.120;2023-08-17T01:12:36;39.50;;;22.88;;
79047;SDS011;68680;50.764;6.120;2023-08-17T01:15:09;40.72;;;21.65;;
79047;SDS011;68680;50.764;6.120;2023-08-17T01:17:40;35.47;;;21.25;;
79047;SDS011;68680;50.764;6.120;2023-08-17T01:20:08;33.35;;;21.63;;
79047;SDS011;68680;50.764;6.120;2023-08-17T01:22:35;40.00;;;24.02;;
79047;SDS011;68680;50.764;6.120;2023-08-17T01:25:05;40.22;;;23.33;;
79047;SDS011;68680;50.764;6.120;2023-08-17T01:27:34;38.25;;;23.58;;
79047;SDS011;68680;50.764;6.120;2023-08-17T01:32:29;38.58;;;22.00;;
79047;SDS011;68680;50.764;6.120;2023-08-17T01:35:01;41.08;;;24.42;;
79047;SDS011;68680;50.764;6.120;2023-08-17T01:37:36;44.63;;;24.20;;
79047;SDS011;68680;50.764;6.120;2023-08-17T01:40:07;45.33;;;25.13;;
79047;SDS011;68680;50.764;6.120;2023-08-17T01:42:34;47.78;;;24.63;;
79047;SDS011;68680;50.764;6.120;2023-08-17T01:45:00;46.08;;;24.23;;
79047;SDS011;68680;50.764;6.120;2023-08-17T01:47:26;45.53;;;25.85;;
79047;SDS011;68680;50.764;6.120;2023-08-17T01:49:51;51.60;;;26.83;;
79047;SDS011;68680;50.764;6.120;2023-08-17T01:52:17;47.28;;;24.60;;
79047;SDS011;68680;50.764;6.120;2023-08-17T01:54:42;41.15;;;24.25;;
79047;SDS011;68680;50.764;6.120;2023-08-17T01:57:09;44.97;;;24.83;;
79047;SDS011;68680;50.764;6.120;2023-08-17T01:59:35;43.58;;;24.42;;
79047;SDS011;68680;50.764;6.120;2023-08-17T02:02:01;44.85;;;23.10;;
79047;SDS011;68680;50.764;6.120;2023-08-17T02:04:26;45.63;;;22.27;;
79047;SDS011;68680;50.764;6.120;2023-08-17T02:06:52;49.05;;;25.05;;
79047;SDS011;68680;50.764;6.120;2023-08-17T02:09:17;41.63;;;23.95;;
79047;SDS011;68680;50.764;6.120;2023-08-17T02:11:43;43.25;;;23.73;;
79047;SDS011;68680;50.764;6.120;2023-08-17T02:14:10;43.60;;;23.02;;
79047;SDS011;68680;50.764;6.120;2023-08-17T02:16:35;41.70;;;22.70;;
79047;SDS011;68680;50.764;6.120;2023-08-17T02:19:01;38.42;;;21.45;;
79047;SDS011;68680;50.764;6.120;2023-08-17T02:21:27;40.55;;;21.88;;
79047;SDS011;68680;50.764;6.120;2023-08-17T02:23:52;46.05;;;21.45;;
79047;SDS011;68680;50.764;6.120;2023-08-17T02:26:18;41.70;;;22.17;;
79047;SDS011;68680;50.764;6.120;2023-08-17T02:28:43;36.83;;;20.88;;
79047;SDS011;68680;50.764;6.120;2023-08-17T02:31:10;36.85;;;21.40;;
79047;SDS011;68680;50.764;6.120;2023-08-17T02:33:36;39.05;;;21.13;;
79047;SDS011;68680;50.764;6.120;2023-08-17T02:36:02;37.15;;;20.65;;
79047;SDS011;68680;50.764;6.120;2023-08-17T02:38:28;39.50;;;21.27;;
79047;SDS011;68680;50.764;6.120;2023-08-17T02:40:53;36.38;;;21.05;;
79047;SDS011;68680;50.764;6.120;2023-08-17T02:43:19;33.97;;;19.50;;
79047;SDS011;68680;50.764;6.120;2023-08-17T02:45:44;36.30;;;19.77;;
79047;SDS011;68680;50.764;6.120;2023-08-17T02:48:11;32.10;;;20.17;;
79047;SDS011;68680;50.764;6.120;2023-08-17T02:50:37;41.83;;;21.23;;
79047;SDS011;68680;50.764;6.120;2023-08-17T02:53:03;36.90;;;20.60;;
79047;SDS011;68680;50.764;6.120;2023-08-17T02:55:28;40.42;;;21.83;;
79047;SDS011;68680;50.764;6.120;2023-08-17T02:57:54;40.28;;;22.65;;
79047;SDS011;68680;50.764;6.120;2023-08-17T03:00:19;40.38;;;22.02;;
79047;SDS011;68680;50.764;6.120;2023-08-17T03:02:45;34.92;;;19.90;;
79047;SDS011;68680;50.764;6.120;2023-08-17T03:05:12;40.03;;;22.70;;
79047;SDS011;68680;50.764;6.120;2023-08-17T03:07:38;40.88;;;23.08;;
79047;SDS011;68680;50.764;6.120;2023-08-17T03:10:03;41.90;;;23.70;;
79047;SDS011;68680;50.764;6.120;2023-08-17T03:12:30;40.90;;;22.67;;
79047;SDS011;68680;50.764;6.120;2023-08-17T03:14:55;40.92;;;23.58;;
79047;SDS011;68680;50.764;6.120;2023-08-17T03:17:21;49.92;;;25.23;;
79047;SDS011;68680;50.764;6.120;2023-08-17T03:19:46;40.40;;;23.23;;
79047;SDS011;68680;50.764;6.120;2023-08-17T03:22:13;47.40;;;24.70;;
79047;SDS011;68680;50.764;6.120;2023-08-17T03:24:39;41.10;;;23.30;;
79047;SDS011;68680;50.764;6.120;2023-08-17T03:27:04;42.72;;;22.92;;
79047;SDS011;68680;50.764;6.120;2023-08-17T03:29:30;46.08;;;24.65;;
79047;SDS011;68680;50.764;6.120;2023-08-17T03:31:56;41.22;;;23.10;;
79047;SDS011;68680;50.764;6.120;2023-08-17T03:34:21;42.80;;;23.40;;
79047;SDS011;68680;50.764;6.120;2023-08-17T03:36:47;38.17;;;23.02;;
79047;SDS011;68680;50.764;6.120;2023-08-17T03:39:14;42.95;;;24.48;;
79047;SDS011;68680;50.764;6.120;2023-08-17T03:41:39;49.20;;;24.85;;
79047;SDS011;68680;50.764;6.120;2023-08-17T03:44:05;42.42;;;23.52;;
79047;SDS011;68680;50.764;6.120;2023-08-17T03:46:30;44.42;;;25.08;;
79047;SDS011;68680;50.764;6.120;2023-08-17T03:48:56;44.65;;;24.52;;
79047;SDS011;68680;50.764;6.120;2023-08-17T03:51:22;47.67;;;25.15;;
79047;SDS011;68680;50.764;6.120;2023-08-17T03:53:47;44.78;;;23.75;;
79047;SDS011;68680;50.764;6.120;2023-08-17T03:56:14;43.13;;;23.80;;
79047;SDS011;68680;50.764;6.120;2023-08-17T03:58:40;46.67;;;26.77;;
79047;SDS011;68680;50.764;6.120;2023-08-17T04:01:06;46.78;;;24.40;;
79047;SDS011;68680;50.764;6.120;2023-08-17T04:03:31;51.70;;;25.95;;
79047;SDS011;68680;50.764;6.120;2023-08-17T04:05:57;47.33;;;24.63;;
79047;SDS011;68680;50.764;6.120;2023-08-17T04:08:23;50.33;;;25.70;;
79047;SDS011;68680;50.764;6.120;2023-08-17T04:10:48;45.95;;;25.75;;
79047;SDS011;68680;50.764;6.120;2023-08-17T04:13:15;53.10;;;25.00;;
79047;SDS011;68680;50.764;6.120;2023-08-17T04:15:41;53.15;;;25.60;;
79047;SDS011;68680;50.764;6.120;2023-08-17T04:18:07;53.17;;;25.48;;
79047;SDS011;68680;50.764;6.120;2023-08-17T04:20:32;51.42;;;24.73;;
79047;SDS011;68680;50.764;6.120;2023-08-17T04:22:58;45.40;;;23.83;;
79047;SDS011;68680;50.764;6.120;2023-08-17T04:25:23;53.92;;;26.67;;
79047;SDS011;68680;50.764;6.120;2023-08-17T04:27:49;54.83;;;26.35;;
79047;SDS011;68680;50.764;6.120;2023-08-17T04:30:16;53.75;;;25.40;;
79047;SDS011;68680;50.764;6.120;2023-08-17T04:32:42;59.80;;;28.02;;
79047;SDS011;68680;50.764;6.120;2023-08-17T04:35:08;58.67;;;27.90;;
79047;SDS011;68680;50.764;6.120;2023-08-17T04:37:33;54.00;;;26.67;;
79047;SDS011;68680;50.764;6.120;2023-08-17T04:39:59;53.03;;;26.88;;
79047;SDS011;68680;50.764;6.120;2023-08-17T04:42:24;57.47;;;25.75;;
79047;SDS011;68680;50.764;6.120;2023-08-17T04:44:50;50.95;;;25.92;;
79047;SDS011;68680;50.764;6.120;2023-08-17T04:47:17;50.17;;;25.20;;
79047;SDS011;68680;50.764;6.120;2023-08-17T04:49:43;49.50;;;24.73;;
79047;SDS011;68680;50.764;6.120;2023-08-17T04:52:08;51.35;;;23.98;;
79047;SDS011;68680;50.764;6.120;2023-08-17T04:54:34;59.33;;;26.98;;
79047;SDS011;68680;50.764;6.120;2023-08-17T04:56:59;53.28;;;24.90;;
79047;SDS011;68680;50.764;6.120;2023-08-17T04:59:25;60.53;;;25.33;;
79047;SDS011;68680;50.764;6.120;2023-08-17T05:01:50;64.65;;;29.35;;
79047;SDS011;68680;50.764;6.120;2023-08-17T05:04:17;60.53;;;27.00;;
79047;SDS011;68680;50.764;6.120;2023-08-17T05:06:43;60.72;;;26.77;;
79047;SDS011;68680;50.764;6.120;2023-08-17T05:09:09;58.20;;;26.27;;
79047;SDS011;68680;50.764;6.120;2023-08-17T05:11:34;62.75;;;27.38;;
79047;SDS011;68680;50.764;6.120;2023-08-17T05:14:00;69.05;;;27.38;;
79047;SDS011;68680;50.764;6.120;2023-08-17T05:16:25;60.33;;;27.58;;
79047;SDS011;68680;50.764;6.120;2023-08-17T05:18:51;63.90;;;27.63;;
79047;SDS011;68680;50.764;6.120;2023-08-17T05:21:18;64.07;;;29.15;;
79047;SDS011;68680;50.764;6.120;2023-08-17T05:23:43;63.03;;;27.45;;
79047;SDS011;68680;50.764;6.120;2023-08-17T05:26:09;61.78;;;28.83;;
79047;SDS011;68680;50.764;6.120;2023-08-17T05:28:35;61.05;;;29.38;;
79047;SDS011;68680;50.764;6.120;2023-08-17T05:31:02;62.53;;;26.17;;
79047;SDS011;68680;50.764;6.120;2023-08-17T05:33:29;65.43;;;26.88;;
79047;SDS011;68680;50.764;6.120;2023-08-17T05:35:55;67.57;;;29.05;;
79047;SDS011;68680;50.764;6.120;2023-08-17T05:38:22;65.95;;;29.05;;
79047;SDS011;68680;50.764;6.120;2023-08-17T05:40:47;69.85;;;30.55;;
79047;SDS011;68680;50.764;6.120;2023-08-17T05:43:18;73.20;;;29.95;;
79047;SDS011;68680;50.764;6.120;2023-08-17T05:45:44;74.75;;;29.17;;
79047;SDS011;68680;50.764;6.120;2023-08-17T05:48:10;65.40;;;27.98;;
79047;SDS011;68680;50.764;6.120;2023-08-17T05:50:35;63.63;;;28.30;;
79047;SDS011;68680;50.764;6.120;2023-08-17T05:53:01;65.68;;;29.48;;
79047;SDS011;68680;50.764;6.120;2023-08-17T05:55:28;70.60;;;28.90;;
79047;SDS011;68680;50.764;6.120;2023-08-17T05:57:53;72.00;;;30.55;;
79047;SDS011;68680;50.764;6.120;2023-08-17T06:00:19;67.88;;;30.15;;
79047;SDS011;68680;50.764;6.120;2023-08-17T06:02:45;65.97;;;29.42;;
79047;SDS011;68680;50.764;6.120;2023-08-17T06:05:10;68.03;;;29.48;;
79047;SDS011;68680;50.764;6.120;2023-08-17T06:07:36;59.47;;;25.38;;
79047;SDS011;68680;50.764;6.120;2023-08-17T06:10:03;66.32;;;26.20;;
79047;SDS011;68680;50.764;6.120;2023-08-17T06:12:30;56.30;;;24.30;;
79047;SDS011;68680;50.764;6.120;2023-08-17T06:14:56;64.10;;;24.38;;
79047;SDS011;68680;50.764;6.120;2023-08-17T06:17:21;53.38;;;25.25;;
79047;SDS011;68680;50.764;6.120;2023-08-17T06:19:47;65.70;;;25.63;;
79047;SDS011;68680;50.764;6.120;2023-08-17T06:22:13;64.50;;;27.83;;
79047;SDS011;68680;50.764;6.120;2023-08-17T06:24:38;70.07;;;28.10;;
79047;SDS011;68680;50.764;6.120;2023-08-17T06:27:04;63.72;;;26.58;;
79047;SDS011;68680;50.764;6.120;2023-08-17T06:29:31;62.83;;;27.00;;
79047;SDS011;68680;50.764;6.120;2023-08-17T06:31:57;74.45;;;28.38;;
79047;SDS011;68680;50.764;6.120;2023-08-17T06:34:22;71.40;;;29.98;;
79047;SDS011;68680;50.764;6.120;2023-08-17T06:36:56;66.97;;;29.08;;
79047;SDS011;68680;50.764;6.120;2023-08-17T06:39:22;72.53;;;29.92;;
79047;SDS011;68680;50.764;6.120;2023-08-17T06:41:48;77.38;;;31.70;;
79047;SDS011;68680;50.764;6.120;2023-08-17T06:44:13;90.07;;;33.42;;
79047;SDS011;68680;50.764;6.120;2023-08-17T06:46:40;77.32;;;31.42;;
79047;SDS011;68680;50.764;6.120;2023-08-17T06:49:07;76.85;;;31.17;;
79047;SDS011;68680;50.764;6.120;2023-08-17T06:51:33;79.82;;;32.00;;
79047;SDS011;68680;50.764;6.120;2023-08-17T06:53:58;91.22;;;34.28;;
79047;SDS011;68680;50.764;6.120;2023-08-17T06:56:24;88.00;;;36.15;;
79047;SDS011;68680;50.764;6.120;2023-08-17T06:58:49;85.28;;;35.40;;
79047;SDS011;68680;50.764;6.120;2023-08-17T07:01:15;98.85;;;36.67;;
79047;SDS011;68680;50.764;6.120;2023-08-17T07:03:42;89.07;;;36.33;;
79047;SDS011;68680;50.764;6.120;2023-08-17T07:06:08;81.88;;;34.58;;
79047;SDS011;68680;50.764;6.120;2023-08-17T07:08:34;87.88;;;35.33;;
79047;SDS011;68680;50.764;6.120;2023-08-17T07:11:00;89.45;;;37.58;;
79047;SDS011;68680;50.764;6.120;2023-08-17T07:13:25;84.65;;;35.83;;
79047;SDS011;68680;50.764;6.120;2023-08-17T07:15:51;95.63;;;37.03;;
79047;SDS011;68680;50.764;6.120;2023-08-17T07:18:17;87.57;;;38.42;;
79047;SDS011;68680;50.764;6.120;2023-08-17T07:20:44;83.50;;;37.33;;
79047;SDS011;68680;50.764;6.120;2023-08-17T07:23:09;92.85;;;37.15;;
79047;SDS011;68680;50.764;6.120;2023-08-17T07:25:35;87.07;;;35.67;;
79047;SDS011;68680;50.764;6.120;2023-08-17T07:28:00;87.38;;;36.08;;
79047;SDS011;68680;50.764;6.120;2023-08-17T07:30:26;87.18;;;35.00;;
79047;SDS011;68680;50.764;6.120;2023-08-17T07:32:52;84.68;;;34.17;;
79047;SDS011;68680;50.764;6.120;2023-08-17T07:35:18;87.35;;;35.90;;
79047;SDS011;68680;50.764;6.120;2023-08-17T07:37:44;85.20;;;34.95;;
79047;SDS011;68680;50.764;6.120;2023-08-17T07:40:10;86.97;;;34.92;;
79047;SDS011;68680;50.764;6.120;2023-08-17T07:42:36;83.45;;;34.80;;
79047;SDS011;68680;50.764;6.120;2023-08-17T07:45:02;80.70;;;34.10;;
79047;SDS011;68680;50.764;6.120;2023-08-17T07:47:28;87.35;;;36.67;;
79047;SDS011;68680;50.764;6.120;2023-08-17T07:49:54;87.88;;;37.38;;
79047;SDS011;68680;50.764;6.120;2023-08-17T07:52:19;86.63;;;35.50;;
79047;SDS011;68680;50.764;6.120;2023-08-17T07:54:46;93.38;;;37.85;;
79047;SDS011;68680;50.764;6.120;2023-08-17T07:57:12;85.40;;;36.63;;
79047;SDS011;68680;50.764;6.120;2023-08-17T07:59:38;88.53;;;37.75;;
79047;SDS011;68680;50.764;6.120;2023-08-17T08:02:03;82.45;;;35.25;;
79047;SDS011;68680;50.764;6.120;2023-08-17T08:04:29;80.57;;;34.35;;
79047;SDS011;68680;50.764;6.120;2023-08-17T08:06:54;79.07;;;33.22;;
79047;SDS011;68680;50.764;6.120;2023-08-17T08:09:20;76.30;;;32.78;;
79047;SDS011;68680;50.764;6.120;2023-08-17T08:11:47;81.28;;;33.20;;
79047;SDS011;68680;50.764;6.120;2023-08-17T08:14:13;84.65;;;34.17;;
79047;SDS011;68680;50.764;6.120;2023-08-17T08:16:38;86.30;;;33.03;;
79047;SDS011;68680;50.764;6.120;2023-08-17T08:19:04;83.90;;;35.22;;
79047;SDS011;68680;50.764;6.120;2023-08-17T08:21:29;75.47;;;33.30;;
79047;SDS011;68680;50.764;6.120;2023-08-17T08:23:55;76.10;;;31.83;;
79047;SDS011;68680;50.764;6.120;2023-08-17T08:26:21;74.75;;;32.95;;
79047;SDS011;68680;50.764;6.120;2023-08-17T08:28:48;79.50;;;33.40;;
79047;SDS011;68680;50.764;6.120;2023-08-17T08:31:14;78.82;;;32.60;;
79047;SDS011;68680;50.764;6.120;2023-08-17T08:33:39;74.40;;;32.30;;
79047;SDS011;68680;50.764;6.120;2023-08-17T08:36:05;77.30;;;32.95;;
79047;SDS011;68680;50.764;6.120;2023-08-17T08:38:30;82.00;;;33.70;;
79047;SDS011;68680;50.764;6.120;2023-08-17T08:40:56;73.10;;;31.48;;
79047;SDS011;68680;50.764;6.120;2023-08-17T08:43:22;150.13;;;77.20;;
79047;SDS011;68680;50.764;6.120;2023-08-17T08:45:49;80.25;;;35.55;;
79047;SDS011;68680;50.764;6.120;2023-08-17T08:48:16;80.53;;;33.20;;
79047;SDS011;68680;50.764;6.120;2023-08-17T08:50:43;76.13;;;32.15;;
79047;SDS011;68680;50.764;6.120;2023-08-17T08:53:11;73.28;;;30.25;;
79047;SDS011;68680;50.764;6.120;2023-08-17T08:55:41;72.93;;;30.85;;
79047;SDS011;68680;50.764;6.120;2023-08-17T08:58:12;72.40;;;31.83;;
79047;SDS011;68680;50.764;6.120;2023-08-17T09:00:38;72.78;;;32.05;;
79047;SDS011;68680;50.764;6.120;2023-08-17T09:03:06;71.22;;;31.45;;
79047;SDS011;68680;50.764;6.120;2023-08-17T09:05:32;71.28;;;30.25;;
79047;SDS011;68680;50.764;6.120;2023-08-17T09:07:59;70.22;;;31.48;;
79047;SDS011;68680;50.764;6.120;2023-08-17T09:10:25;77.95;;;33.42;;
79047;SDS011;68680;50.764;6.120;2023-08-17T09:12:51;74.35;;;32.67;;
79047;SDS011;68680;50.764;6.120;2023-08-17T09:15:16;76.60;;;32.85;;
79047;SDS011;68680;50.764;6.120;2023-08-17T09:17:42;78.18;;;33.15;;
79047;SDS011;68680;50.764;6.120;2023-08-17T09:20:10;82.32;;;31.83;;
79047;SDS011;68680;50.764;6.120;2023-08-17T09:22:36;70.63;;;31.73;;
79047;SDS011;68680;50.764;6.120;2023-08-17T09:25:03;77.57;;;31.85;;
79047;SDS011;68680;50.764;6.120;2023-08-17T09:27:30;72.65;;;31.48;;
79047;SDS011;68680;50.764;6.120;2023-08-17T09:30:00;70.13;;;29.95;;
79047;SDS011;68680;50.764;6.120;2023-08-17T09:32:28;77.22;;;31.02;;
79047;SDS011;68680;50.764;6.120;2023-08-17T09:34:55;66.68;;;29.73;;
79047;SDS011;68680;50.764;6.120;2023-08-17T09:37:22;66.43;;;29.38;;
79047;SDS011;68680;50.764;6.120;2023-08-17T09:39:47;66.30;;;28.90;;
79047;SDS011;68680;50.764;6.120;2023-08-17T09:42:13;66.18;;;30.02;;
79047;SDS011;68680;50.764;6.120;2023-08-17T09:44:39;66.00;;;29.10;;
79047;SDS011;68680;50.764;6.120;2023-08-17T09:47:05;70.10;;;30.23;;
79047;SDS011;68680;50.764;6.120;2023-08-17T09:49:31;64.60;;;28.02;;
79047;SDS011;68680;50.764;6.120;2023-08-17T09:51:58;60.03;;;26.02;;
79047;SDS011;68680;50.764;6.120;2023-08-17T09:54:27;64.40;;;28.38;;
79047;SDS011;68680;50.764;6.120;2023-08-17T09:56:56;65.35;;;29.73;;
79047;SDS011;68680;50.764;6.120;2023-08-17T09:59:22;65.60;;;29.02;;
79047;SDS011;68680;50.764;6.120;2023-08-17T10:01:48;60.30;;;26.15;;
79047;SDS011;68680;50.764;6.120;2023-08-17T10:04:16;53.75;;;24.92;;
79047;SDS011;68680;50.764;6.120;2023-08-17T10:06:45;56.40;;;26.87;;
79047;SDS011;68680;50.764;6.120;2023-08-17T10:09:13;62.10;;;26.02;;
79047;SDS011;68680;50.764;6.120;2023-08-17T10:11:45;64.03;;;26.83;;
79047;SDS011;68680;50.764;6.120;2023-08-17T10:14:15;60.08;;;26.65;;
79047;SDS011;68680;50.764;6.120;2023-08-17T10:16:53;55.88;;;25.23;;
79047;SDS011;68680;50.764;6.120;2023-08-17T10:19:25;56.95;;;27.02;;
79047;SDS011;68680;50.764;6.120;2023-08-17T10:22:00;56.50;;;26.38;;
79047;SDS011;68680;50.764;6.120;2023-08-17T10:24:31;60.28;;;27.27;;
79047;SDS011;68680;50.764;6.120;2023-08-17T10:26:59;58.05;;;25.65;;
79047;SDS011;68680;50.764;6.120;2023-08-17T10:29:25;54.85;;;26.65;;
79047;SDS011;68680;50.764;6.120;2023-08-17T10:31:52;61.63;;;25.88;;
79047;SDS011;68680;50.764;6.120;2023-08-17T10:34:18;51.35;;;25.63;;
79047;SDS011;68680;50.764;6.120;2023-08-17T10:36:44;50.72;;;23.98;;
79047;SDS011;68680;50.764;6.120;2023-08-17T10:39:20;55.00;;;25.88;;
79047;SDS011;68680;50.764;6.120;2023-08-17T10:41:47;55.10;;;26.58;;
79047;SDS011;68680;50.764;6.120;2023-08-17T10:44:15;54.92;;;24.45;;
79047;SDS011;68680;50.764;6.120;2023-08-17T10:46:42;56.60;;;25.35;;
79047;SDS011;68680;50.764;6.120;2023-08-17T10:49:23;54.42;;;25.17;;
79047;SDS011;68680;50.764;6.120;2023-08-17T10:51:59;54.83;;;25.17;;
79047;SDS011;68680;50.764;6.120;2023-08-17T10:54:35;69.70;;;24.70;;
79047;SDS011;68680;50.764;6.120;2023-08-17T10:57:15;54.63;;;25.55;;
79047;SDS011;68680;50.764;6.120;2023-08-17T11:02:45;50.05;;;24.30;;
79047;SDS011;68680;50.764;6.120;2023-08-17T11:05:21;56.15;;;26.08;;
79047;SDS011;68680;50.764;6.120;2023-08-17T11:07:59;57.63;;;27.67;;
79047;SDS011;68680;50.764;6.120;2023-08-17T11:10:28;55.80;;;26.80;;
79047;SDS011;68680;50.764;6.120;2023-08-17T11:12:54;64.40;;;28.65;;
79047;SDS011;68680;50.764;6.120;2023-08-17T11:15:21;77.80;;;29.05;;
79047;SDS011;68680;50.764;6.120;2023-08-17T11:17:46;60.38;;;27.23;;
79047;SDS011;68680;50.764;6.120;2023-08-17T11:20:12;54.53;;;26.08;;
79047;SDS011;68680;50.764;6.120;2023-08-17T11:22:38;54.67;;;26.70;;
79047;SDS011;68680;50.764;6.120;2023-08-17T11:25:04;59.83;;;27.63;;
79047;SDS011;68680;50.764;6.120;2023-08-17T11:27:30;60.78;;;27.42;;
79047;SDS011;68680;50.764;6.120;2023-08-17T11:29:56;59.20;;;28.20;;
79047;SDS011;68680;50.764;6.120;2023-08-17T11:32:23;57.33;;;27.45;;
79047;SDS011;68680;50.764;6.120;2023-08-17T11:34:49;52.17;;;27.48;;
79047;SDS011;68680;50.764;6.120;2023-08-17T11:37:15;52.42;;;25.73;;
79047;SDS011;68680;50.764;6.120;2023-08-17T11:39:41;58.78;;;27.15;;
79047;SDS011;68680;50.764;6.120;2023-08-17T11:42:07;53.20;;;28.20;;
79047;SDS011;68680;50.764;6.120;2023-08-17T11:44:33;57.97;;;28.33;;
79047;SDS011;68680;50.764;6.120;2023-08-17T11:46:58;66.22;;;32.22;;
79047;SDS011;68680;50.764;6.120;2023-08-17T11:49:25;68.72;;;33.22;;
79047;SDS011;68680;50.764;6.120;2023-08-17T11:51:51;59.97;;;30.55;;
79047;SDS011;68680;50.764;6.120;2023-08-17T11:54:17;68.65;;;34.40;;
79047;SDS011;68680;50.764;6.120;2023-08-17T11:56:42;69.63;;;34.20;;
79047;SDS011;68680;50.764;6.120;2023-08-17T11:59:08;69.38;;;33.63;;
79047;SDS011;68680;50.764;6.120;2023-08-17T12:01:34;66.35;;;31.40;;
79047;SDS011;68680;50.764;6.120;2023-08-17T12:04:03;66.70;;;33.92;;
79047;SDS011;68680;50.764;6.120;2023-08-17T12:06:31;70.43;;;34.97;;
79047;SDS011;68680;50.764;6.120;2023-08-17T12:08:57;65.45;;;32.10;;
79047;SDS011;68680;50.764;6.120;2023-08-17T12:11:23;62.75;;;31.48;;
79047;SDS011;68680;50.764;6.120;2023-08-17T12:13:49;55.53;;;26.95;;
79047;SDS011;68680;50.764;6.120;2023-08-17T12:16:15;54.90;;;26.05;;
79047;SDS011;68680;50.764;6.120;2023-08-17T12:18:43;51.97;;;26.05;;
79047;SDS011;68680;50.764;6.120;2023-08-17T12:21:09;52.92;;;26.80;;
79047;SDS011;68680;50.764;6.120;2023-08-17T12:23:36;57.80;;;29.30;;
79047;SDS011;68680;50.764;6.120;2023-08-17T12:26:01;51.53;;;25.38;;
79047;SDS011;68680;50.764;6.120;2023-08-17T12:28:27;46.50;;;25.67;;
79047;SDS011;68680;50.764;6.120;2023-08-17T12:30:59;49.70;;;26.15;;
79047;SDS011;68680;50.764;6.120;2023-08-17T12:33:26;53.53;;;26.60;;
79047;SDS011;68680;50.764;6.120;2023-08-17T12:35:51;60.63;;;27.00;;
79047;SDS011;68680;50.764;6.120;2023-08-17T12:38:17;64.28;;;24.92;;
79047;SDS011;68680;50.764;6.120;2023-08-17T12:40:44;61.15;;;28.55;;
79047;SDS011;68680;50.764;6.120;2023-08-17T12:43:10;54.58;;;26.48;;
79047;SDS011;68680;50.764;6.120;2023-08-17T12:45:35;57.10;;;26.50;;
79047;SDS011;68680;50.764;6.120;2023-08-17T12:48:01;60.92;;;27.63;;
79047;SDS011;68680;50.764;6.120;2023-08-17T12:50:27;58.88;;;26.42;;
79047;SDS011;68680;50.764;6.120;2023-08-17T12:52:52;56.78;;;27.08;;
79047;SDS011;68680;50.764;6.120;2023-08-17T12:55:18;55.67;;;26.50;;
79047;SDS011;68680;50.764;6.120;2023-08-17T12:57:45;60.15;;;27.17;;
79047;SDS011;68680;50.764;6.120;2023-08-17T13:00:11;55.42;;;27.17;;
79047;SDS011;68680;50.764;6.120;2023-08-17T13:02:37;59.90;;;28.48;;
79047;SDS011;68680;50.764;6.120;2023-08-17T13:05:03;61.95;;;29.08;;
79047;SDS011;68680;50.764;6.120;2023-08-17T13:07:28;56.75;;;28.92;;
79047;SDS011;68680;50.764;6.120;2023-08-17T13:09:54;58.85;;;28.67;;
79047;SDS011;68680;50.764;6.120;2023-08-17T13:12:20;57.45;;;28.95;;
79047;SDS011;68680;50.764;6.120;2023-08-17T13:14:46;61.67;;;27.60;;
79047;SDS011;68680;50.764;6.120;2023-08-17T13:17:12;55.47;;;25.73;;
79047;SDS011;68680;50.764;6.120;2023-08-17T13:19:38;51.00;;;25.77;;
79047;SDS011;68680;50.764;6.120;2023-08-17T13:22:03;51.45;;;27.02;;
79047;SDS011;68680;50.764;6.120;2023-08-17T13:24:29;49.13;;;25.02;;
79047;SDS011;68680;50.764;6.120;2023-08-17T13:26:55;46.05;;;24.38;;
79047;SDS011;68680;50.764;6.120;2023-08-17T13:29:20;47.35;;;24.15;;
79047;SDS011;68680;50.764;6.120;2023-08-17T13:31:47;47.00;;;26.58;;
79047;SDS011;68680;50.764;6.120;2023-08-17T13:34:13;46.15;;;23.08;;
79047;SDS011;68680;50.764;6.120;2023-08-17T13:36:39;47.30;;;23.92;;
79047;SDS011;68680;50.764;6.120;2023-08-17T13:39:04;44.92;;;23.50;;
79047;SDS011;68680;50.764;6.120;2023-08-17T13:41:30;51.67;;;27.58;;
79047;SDS011;68680;50.764;6.120;2023-08-17T13:43:56;52.00;;;25.95;;
79047;SDS011;68680;50.764;6.120;2023-08-17T13:46:21;55.08;;;26.80;;
79047;SDS011;68680;50.764;6.120;2023-08-17T13:48:48;55.15;;;26.95;;
79047;SDS011;68680;50.764;6.120;2023-08-17T13:51:14;55.85;;;26.25;;
79047;SDS011;68680;50.764;6.120;2023-08-17T13:53:39;58.08;;;28.00;;
79047;SDS011;68680;50.764;6.120;2023-08-17T13:56:05;56.63;;;25.85;;
79047;SDS011;68680;50.764;6.120;2023-08-17T13:58:31;55.90;;;26.58;;
79047;SDS011;68680;50.764;6.120;2023-08-17T14:00:56;60.92;;;27.48;;
79047;SDS011;68680;50.764;6.120;2023-08-17T14:03:22;64.72;;;29.23;;
79047;SDS011;68680;50.764;6.120;2023-08-17T14:05:49;60.28;;;29.20;;
79047;SDS011;68680;50.764;6.120;2023-08-17T14:08:15;59.15;;;27.80;;
79047;SDS011;68680;50.764;6.120;2023-08-17T14:10:41;57.10;;;24.58;;
79047;SDS011;68680;50.764;6.120;2023-08-17T14:13:06;56.40;;;25.98;;
79047;SDS011;68680;50.764;6.120;2023-08-17T14:15:32;51.03;;;25.15;;
79047;SDS011;68680;50.764;6.120;2023-08-17T14:17:58;45.95;;;22.30;;
79047;SDS011;68680;50.764;6.120;2023-08-17T14:20:23;49.00;;;24.10;;
79047;SDS011;68680;50.764;6.120;2023-08-17T14:22:50;53.65;;;24.08;;